sensor_id;sensor_type;location;lat;lon;timestamp;P1;durP1;ratioP1;P2;durP2;ratioP2
26512;SDS011;14186;53.822;10.152;2022-12-24T00:04:35;21.05;;;6.72;;
26512;SDS011;14186;53.822;10.152;2022-12-24T00:09:36;20.75;;;6.90;;
26512;SDS011;14186;53.822;10.152;2022-12-24T00:14:37;20.85;;;6.65;;
26512;SDS011;14186;53.822;10.152;2022-12-24T00:19:37;23.40;;;7.05;;
26512;SDS011;14186;53.822;10.152;2022-12-24T00:24:38;24.23;;;7.72;;
26512;SDS011;14186;53.822;10.152;2022-12-24T00:29:39;19.60;;;7.88;;
26512;SDS011;14186;53.822;10.152;2022-12-24T00:34:39;21.58;;;7.57;;
26512;SDS011;14186;53.822;10.152;2022-12-24T00:39:40;22.30;;;8.13;;
26512;SDS011;14186;53.822;10.152;2022-12-24T00:44:41;29.20;;;8.43;;
26512;SDS011;14186;53.822;10.152;2022-12-24T00:49:41;16.92;;;7.75;;
26512;SDS011;14186;53.822;10.152;2022-12-24T00:54:42;28.73;;;8.50;;
26512;SDS011;14186;53.822;10.152;2022-12-24T00:59:42;26.42;;;8.15;;
26512;SDS011;14186;53.822;10.152;2022-12-24T01:04:43;23.45;;;8.23;;
26512;SDS011;14186;53.822;10.152;2022-12-24T01:09:44;21.83;;;7.40;;
26512;SDS011;14186;53.822;10.152;2022-12-24T01:14:44;24.38;;;8.38;;
26512;SDS011;14186;53.822;10.152;2022-12-24T01:19:45;22.13;;;7.78;;
26512;SDS011;14186;53.822;10.152;2022-12-24T01:24:46;30.00;;;8.93;;
26512;SDS011;14186;53.822;10.152;2022-12-24T01:29:47;21.63;;;8.07;;
26512;SDS011;14186;53.822;10.152;2022-12-24T01:34:47;24.77;;;8.73;;
26512;SDS011;14186;53.822;10.152;2022-12-24T01:39:48;25.67;;;9.30;;
26512;SDS011;14186;53.822;10.152;2022-12-24T01:44:49;26.63;;;9.43;;
26512;SDS011;14186;53.822;10.152;2022-12-24T01:49:50;25.25;;;9.23;;
26512;SDS011;14186;53.822;10.152;2022-12-24T01:54:54;27.20;;;9.80;;
26512;SDS011;14186;53.822;10.152;2022-12-24T01:59:56;30.55;;;10.55;;
26512;SDS011;14186;53.822;10.152;2022-12-24T02:04:57;33.03;;;10.40;;
26512;SDS011;14186;53.822;10.152;2022-12-24T02:10:03;25.95;;;11.27;;
26512;SDS011;14186;53.822;10.152;2022-12-24T02:15:04;33.88;;;10.52;;
26512;SDS011;14186;53.822;10.152;2022-12-24T02:20:13;34.40;;;11.48;;
26512;SDS011;14186;53.822;10.152;2022-12-24T02:25:22;37.10;;;12.38;;
26512;SDS011;14186;53.822;10.152;2022-12-24T02:30:27;34.20;;;13.10;;
26512;SDS011;14186;53.822;10.152;2022-12-24T02:40:30;37.83;;;12.57;;
26512;SDS011;14186;53.822;10.152;2022-12-24T02:45:34;45.00;;;13.48;;
26512;SDS011;14186;53.822;10.152;2022-12-24T02:50:35;40.35;;;12.68;;
26512;SDS011;14186;53.822;10.152;2022-12-24T02:55:38;42.05;;;13.23;;
26512;SDS011;14186;53.822;10.152;2022-12-24T03:00:46;41.03;;;11.48;;
26512;SDS011;14186;53.822;10.152;2022-12-24T03:05:50;34.30;;;12.15;;
26512;SDS011;14186;53.822;10.152;2022-12-24T03:10:52;35.58;;;11.85;;
26512;SDS011;14186;53.822;10.152;2022-12-24T03:15:55;33.78;;;11.98;;
26512;SDS011;14186;53.822;10.152;2022-12-24T03:20:55;35.78;;;11.50;;
26512;SDS011;14186;53.822;10.152;2022-12-24T03:25:56;40.53;;;12.60;;
26512;SDS011;14186;53.822;10.152;2022-12-24T03:31:00;38.65;;;12.32;;
26512;SDS011;14186;53.822;10.152;2022-12-24T03:36:03;31.20;;;10.80;;
26512;SDS011;14186;53.822;10.152;2022-12-24T03:41:03;38.10;;;11.07;;
26512;SDS011;14186;53.822;10.152;2022-12-24T03:46:05;32.03;;;10.95;;
26512;SDS011;14186;53.822;10.152;2022-12-24T03:51:13;34.45;;;10.55;;
26512;SDS011;14186;53.822;10.152;2022-12-24T03:56:15;31.88;;;10.55;;
26512;SDS011;14186;53.822;10.152;2022-12-24T04:01:17;30.70;;;10.13;;
26512;SDS011;14186;53.822;10.152;2022-12-24T04:06:17;31.42;;;10.20;;
26512;SDS011;14186;53.822;10.152;2022-12-24T04:11:17;32.60;;;10.05;;
26512;SDS011;14186;53.822;10.152;2022-12-24T04:16:19;30.10;;;8.93;;
26512;SDS011;14186;53.822;10.152;2022-12-24T04:21:19;34.88;;;9.98;;
26512;SDS011;14186;53.822;10.152;2022-12-24T04:26:19;33.22;;;10.25;;
26512;SDS011;14186;53.822;10.152;2022-12-24T04:31:21;27.33;;;9.55;;
26512;SDS011;14186;53.822;10.152;2022-12-24T04:36:21;25.85;;;9.75;;
26512;SDS011;14186;53.822;10.152;2022-12-24T04:41:22;30.90;;;8.02;;
26512;SDS011;14186;53.822;10.152;2022-12-24T04:46:24;21.17;;;8.27;;
26512;SDS011;14186;53.822;10.152;2022-12-24T04:51:25;28.40;;;8.23;;
26512;SDS011;14186;53.822;10.152;2022-12-24T04:56:26;23.70;;;8.48;;
26512;SDS011;14186;53.822;10.152;2022-12-24T05:01:29;22.83;;;8.48;;
26512;SDS011;14186;53.822;10.152;2022-12-24T05:06:30;26.38;;;8.65;;
26512;SDS011;14186;53.822;10.152;2022-12-24T05:11:31;28.27;;;8.93;;
26512;SDS011;14186;53.822;10.152;2022-12-24T05:16:32;26.48;;;9.43;;
26512;SDS011;14186;53.822;10.152;2022-12-24T05:21:32;32.28;;;9.65;;
26512;SDS011;14186;53.822;10.152;2022-12-24T05:26:34;23.58;;;8.57;;
26512;SDS011;14186;53.822;10.152;2022-12-24T05:31:35;25.42;;;9.52;;
26512;SDS011;14186;53.822;10.152;2022-12-24T05:36:36;24.35;;;9.32;;
26512;SDS011;14186;53.822;10.152;2022-12-24T05:41:36;26.17;;;8.77;;
26512;SDS011;14186;53.822;10.152;2022-12-24T05:46:37;20.55;;;8.48;;
26512;SDS011;14186;53.822;10.152;2022-12-24T05:51:38;23.38;;;8.95;;
26512;SDS011;14186;53.822;10.152;2022-12-24T05:56:38;24.13;;;8.02;;
26512;SDS011;14186;53.822;10.152;2022-12-24T06:01:40;18.88;;;7.43;;
26512;SDS011;14186;53.822;10.152;2022-12-24T06:06:40;21.52;;;7.28;;
26512;SDS011;14186;53.822;10.152;2022-12-24T06:11:40;19.10;;;7.50;;
26512;SDS011;14186;53.822;10.152;2022-12-24T06:16:41;19.63;;;7.38;;
26512;SDS011;14186;53.822;10.152;2022-12-24T06:21:42;24.58;;;8.65;;
26512;SDS011;14186;53.822;10.152;2022-12-24T06:26:42;18.13;;;6.95;;
26512;SDS011;14186;53.822;10.152;2022-12-24T06:31:43;18.73;;;7.47;;
26512;SDS011;14186;53.822;10.152;2022-12-24T06:36:44;16.95;;;7.00;;
26512;SDS011;14186;53.822;10.152;2022-12-24T06:41:44;17.23;;;7.10;;
26512;SDS011;14186;53.822;10.152;2022-12-24T06:46:45;16.83;;;6.88;;
26512;SDS011;14186;53.822;10.152;2022-12-24T06:51:45;17.25;;;6.95;;
26512;SDS011;14186;53.822;10.152;2022-12-24T06:56:46;12.85;;;5.63;;
26512;SDS011;14186;53.822;10.152;2022-12-24T07:01:47;13.70;;;5.75;;
26512;SDS011;14186;53.822;10.152;2022-12-24T07:06:47;17.38;;;6.88;;
26512;SDS011;14186;53.822;10.152;2022-12-24T07:11:48;15.02;;;6.03;;
26512;SDS011;14186;53.822;10.152;2022-12-24T07:16:50;16.13;;;7.13;;
26512;SDS011;14186;53.822;10.152;2022-12-24T07:21:50;16.27;;;6.45;;
26512;SDS011;14186;53.822;10.152;2022-12-24T07:26:50;15.98;;;6.40;;
26512;SDS011;14186;53.822;10.152;2022-12-24T07:31:52;15.82;;;6.10;;
26512;SDS011;14186;53.822;10.152;2022-12-24T07:36:52;19.90;;;6.50;;
26512;SDS011;14186;53.822;10.152;2022-12-24T07:41:52;15.07;;;6.50;;
26512;SDS011;14186;53.822;10.152;2022-12-24T07:46:54;14.45;;;6.57;;
26512;SDS011;14186;53.822;10.152;2022-12-24T07:51:54;15.60;;;5.95;;
26512;SDS011;14186;53.822;10.152;2022-12-24T07:56:54;14.15;;;6.15;;
26512;SDS011;14186;53.822;10.152;2022-12-24T08:01:56;12.45;;;5.53;;
26512;SDS011;14186;53.822;10.152;2022-12-24T08:06:56;14.20;;;6.13;;
26512;SDS011;14186;53.822;10.152;2022-12-24T08:11:56;14.77;;;6.53;;
26512;SDS011;14186;53.822;10.152;2022-12-24T08:16:57;15.63;;;6.18;;
26512;SDS011;14186;53.822;10.152;2022-12-24T08:21:58;17.75;;;6.55;;
26512;SDS011;14186;53.822;10.152;2022-12-24T08:26:58;13.60;;;5.85;;
26512;SDS011;14186;53.822;10.152;2022-12-24T08:31:59;13.02;;;6.15;;
26512;SDS011;14186;53.822;10.152;2022-12-24T08:37:00;16.33;;;6.45;;
26512;SDS011;14186;53.822;10.152;2022-12-24T08:42:00;14.15;;;6.13;;
26512;SDS011;14186;53.822;10.152;2022-12-24T08:47:01;13.73;;;6.35;;
26512;SDS011;14186;53.822;10.152;2022-12-24T08:52:01;13.20;;;5.93;;
26512;SDS011;14186;53.822;10.152;2022-12-24T08:57:02;14.95;;;5.85;;
26512;SDS011;14186;53.822;10.152;2022-12-24T09:02:03;15.10;;;5.65;;
26512;SDS011;14186;53.822;10.152;2022-12-24T09:07:04;10.88;;;5.38;;
26512;SDS011;14186;53.822;10.152;2022-12-24T09:12:04;8.68;;;4.53;;
26512;SDS011;14186;53.822;10.152;2022-12-24T09:17:06;11.73;;;5.38;;
26512;SDS011;14186;53.822;10.152;2022-12-24T09:22:06;12.98;;;4.90;;
26512;SDS011;14186;53.822;10.152;2022-12-24T09:27:06;9.43;;;4.93;;
26512;SDS011;14186;53.822;10.152;2022-12-24T09:32:08;14.05;;;6.03;;
26512;SDS011;14186;53.822;10.152;2022-12-24T09:37:08;13.07;;;5.88;;
26512;SDS011;14186;53.822;10.152;2022-12-24T09:42:10;11.35;;;6.10;;
26512;SDS011;14186;53.822;10.152;2022-12-24T09:47:16;9.75;;;4.80;;
26512;SDS011;14186;53.822;10.152;2022-12-24T09:52:21;10.63;;;5.43;;
26512;SDS011;14186;53.822;10.152;2022-12-24T09:57:27;12.80;;;5.78;;
26512;SDS011;14186;53.822;10.152;2022-12-24T10:02:29;9.38;;;5.22;;
26512;SDS011;14186;53.822;10.152;2022-12-24T10:07:33;10.50;;;5.20;;
26512;SDS011;14186;53.822;10.152;2022-12-24T10:12:38;13.80;;;6.10;;
26512;SDS011;14186;53.822;10.152;2022-12-24T10:17:47;11.13;;;5.97;;
26512;SDS011;14186;53.822;10.152;2022-12-24T10:22:50;11.02;;;5.70;;
26512;SDS011;14186;53.822;10.152;2022-12-24T10:27:53;8.38;;;4.93;;
26512;SDS011;14186;53.822;10.152;2022-12-24T10:32:55;9.80;;;5.28;;
26512;SDS011;14186;53.822;10.152;2022-12-24T10:37:55;10.30;;;5.32;;
26512;SDS011;14186;53.822;10.152;2022-12-24T10:42:55;10.18;;;5.25;;
26512;SDS011;14186;53.822;10.152;2022-12-24T10:47:57;11.15;;;5.28;;
26512;SDS011;14186;53.822;10.152;2022-12-24T10:53:03;12.80;;;5.38;;
26512;SDS011;14186;53.822;10.152;2022-12-24T10:58:04;9.15;;;5.40;;
26512;SDS011;14186;53.822;10.152;2022-12-24T11:03:19;10.95;;;5.43;;
26512;SDS011;14186;53.822;10.152;2022-12-24T11:08:20;11.98;;;5.65;;
26512;SDS011;14186;53.822;10.152;2022-12-24T11:13:21;10.10;;;5.20;;
26512;SDS011;14186;53.822;10.152;2022-12-24T11:18:24;10.68;;;5.70;;
26512;SDS011;14186;53.822;10.152;2022-12-24T11:23:24;10.60;;;5.50;;
26512;SDS011;14186;53.822;10.152;2022-12-24T11:28:25;9.77;;;5.47;;
26512;SDS011;14186;53.822;10.152;2022-12-24T11:33:28;10.50;;;5.45;;
26512;SDS011;14186;53.822;10.152;2022-12-24T11:38:28;10.40;;;5.93;;
26512;SDS011;14186;53.822;10.152;2022-12-24T11:43:34;10.68;;;5.10;;
26512;SDS011;14186;53.822;10.152;2022-12-24T11:48:36;13.68;;;5.43;;
26512;SDS011;14186;53.822;10.152;2022-12-24T11:53:37;10.82;;;4.60;;
26512;SDS011;14186;53.822;10.152;2022-12-24T11:58:40;9.25;;;5.40;;
26512;SDS011;14186;53.822;10.152;2022-12-24T12:03:44;11.77;;;6.38;;
26512;SDS011;14186;53.822;10.152;2022-12-24T12:08:45;11.35;;;6.35;;
26512;SDS011;14186;53.822;10.152;2022-12-24T12:13:46;12.50;;;6.70;;
26512;SDS011;14186;53.822;10.152;2022-12-24T12:18:50;11.25;;;6.90;;
26512;SDS011;14186;53.822;10.152;2022-12-24T12:23:52;13.68;;;6.90;;
26512;SDS011;14186;53.822;10.152;2022-12-24T12:28:55;13.27;;;7.35;;
26512;SDS011;14186;53.822;10.152;2022-12-24T12:33:58;14.90;;;7.72;;
26512;SDS011;14186;53.822;10.152;2022-12-24T12:38:59;16.27;;;9.02;;
26512;SDS011;14186;53.822;10.152;2022-12-24T12:44:10;20.55;;;10.40;;
26512;SDS011;14186;53.822;10.152;2022-12-24T12:49:19;14.32;;;8.93;;
26512;SDS011;14186;53.822;10.152;2022-12-24T12:54:27;16.33;;;9.25;;
26512;SDS011;14186;53.822;10.152;2022-12-24T13:04:46;16.40;;;8.57;;
26512;SDS011;14186;53.822;10.152;2022-12-24T13:09:56;15.75;;;8.48;;
26512;SDS011;14186;53.822;10.152;2022-12-24T13:15:06;19.67;;;10.82;;
26512;SDS011;14186;53.822;10.152;2022-12-24T13:20:13;16.85;;;9.25;;
26512;SDS011;14186;53.822;10.152;2022-12-24T13:25:19;18.23;;;9.75;;
26512;SDS011;14186;53.822;10.152;2022-12-24T13:30:34;18.48;;;9.75;;
26512;SDS011;14186;53.822;10.152;2022-12-24T13:35:37;19.00;;;10.30;;
26512;SDS011;14186;53.822;10.152;2022-12-24T13:40:37;17.63;;;9.52;;
26512;SDS011;14186;53.822;10.152;2022-12-24T13:45:44;20.90;;;9.65;;
26512;SDS011;14186;53.822;10.152;2022-12-24T13:50:47;18.95;;;9.70;;
26512;SDS011;14186;53.822;10.152;2022-12-24T13:55:49;16.77;;;9.07;;
26512;SDS011;14186;53.822;10.152;2022-12-24T14:00:53;20.08;;;10.43;;
26512;SDS011;14186;53.822;10.152;2022-12-24T14:05:55;23.63;;;10.43;;
26512;SDS011;14186;53.822;10.152;2022-12-24T14:10:58;21.73;;;11.75;;
26512;SDS011;14186;53.822;10.152;2022-12-24T14:15:59;23.63;;;12.05;;
26512;SDS011;14186;53.822;10.152;2022-12-24T14:21:01;26.80;;;12.70;;
26512;SDS011;14186;53.822;10.152;2022-12-24T14:26:03;23.60;;;11.73;;
26512;SDS011;14186;53.822;10.152;2022-12-24T14:31:10;20.83;;;10.38;;
26512;SDS011;14186;53.822;10.152;2022-12-24T14:36:14;20.98;;;10.13;;
26512;SDS011;14186;53.822;10.152;2022-12-24T14:41:27;24.55;;;11.25;;
26512;SDS011;14186;53.822;10.152;2022-12-24T14:46:31;22.92;;;11.45;;
26512;SDS011;14186;53.822;10.152;2022-12-24T14:51:36;23.53;;;11.77;;
26512;SDS011;14186;53.822;10.152;2022-12-24T14:56:37;29.23;;;14.18;;
26512;SDS011;14186;53.822;10.152;2022-12-24T15:01:37;27.35;;;14.25;;
26512;SDS011;14186;53.822;10.152;2022-12-24T15:06:40;30.08;;;14.23;;
26512;SDS011;14186;53.822;10.152;2022-12-24T15:11:42;23.75;;;11.30;;
26512;SDS011;14186;53.822;10.152;2022-12-24T15:16:47;26.95;;;12.88;;
26512;SDS011;14186;53.822;10.152;2022-12-24T15:26:49;21.48;;;10.52;;
26512;SDS011;14186;53.822;10.152;2022-12-24T15:31:52;28.85;;;13.80;;
26512;SDS011;14186;53.822;10.152;2022-12-24T15:36:59;25.20;;;12.02;;
26512;SDS011;14186;53.822;10.152;2022-12-24T15:42:01;27.13;;;11.02;;
26512;SDS011;14186;53.822;10.152;2022-12-24T15:47:02;27.00;;;12.38;;
26512;SDS011;14186;53.822;10.152;2022-12-24T15:52:04;28.92;;;12.02;;
26512;SDS011;14186;53.822;10.152;2022-12-24T15:57:13;46.63;;;19.48;;
26512;SDS011;14186;53.822;10.152;2022-12-24T16:02:17;32.03;;;17.65;;
26512;SDS011;14186;53.822;10.152;2022-12-24T16:07:23;37.92;;;18.10;;
26512;SDS011;14186;53.822;10.152;2022-12-24T16:12:25;52.33;;;20.95;;
26512;SDS011;14186;53.822;10.152;2022-12-24T16:17:26;35.45;;;16.75;;
26512;SDS011;14186;53.822;10.152;2022-12-24T16:22:26;30.02;;;13.82;;
26512;SDS011;14186;53.822;10.152;2022-12-24T16:27:28;30.45;;;15.43;;
26512;SDS011;14186;53.822;10.152;2022-12-24T16:32:30;36.35;;;15.27;;
26512;SDS011;14186;53.822;10.152;2022-12-24T16:37:31;28.98;;;14.80;;
26512;SDS011;14186;53.822;10.152;2022-12-24T16:42:32;37.42;;;17.15;;
26512;SDS011;14186;53.822;10.152;2022-12-24T16:47:33;31.75;;;16.23;;
26512;SDS011;14186;53.822;10.152;2022-12-24T16:52:34;29.65;;;13.93;;
26512;SDS011;14186;53.822;10.152;2022-12-24T16:57:35;28.00;;;13.40;;
26512;SDS011;14186;53.822;10.152;2022-12-24T17:02:38;30.73;;;14.10;;
26512;SDS011;14186;53.822;10.152;2022-12-24T17:07:38;27.08;;;12.25;;
26512;SDS011;14186;53.822;10.152;2022-12-24T17:12:40;31.38;;;13.70;;
26512;SDS011;14186;53.822;10.152;2022-12-24T17:17:40;28.60;;;14.52;;
26512;SDS011;14186;53.822;10.152;2022-12-24T17:22:40;31.08;;;14.65;;
26512;SDS011;14186;53.822;10.152;2022-12-24T17:27:42;26.40;;;13.57;;
26512;SDS011;14186;53.822;10.152;2022-12-24T17:32:42;27.65;;;13.27;;
26512;SDS011;14186;53.822;10.152;2022-12-24T17:37:42;29.42;;;12.85;;
26512;SDS011;14186;53.822;10.152;2022-12-24T17:42:44;28.75;;;11.82;;
26512;SDS011;14186;53.822;10.152;2022-12-24T17:47:44;26.02;;;10.27;;
26512;SDS011;14186;53.822;10.152;2022-12-24T17:52:44;23.50;;;7.68;;
26512;SDS011;14186;53.822;10.152;2022-12-24T17:57:45;23.88;;;7.72;;
26512;SDS011;14186;53.822;10.152;2022-12-24T18:02:46;24.88;;;6.43;;
26512;SDS011;14186;53.822;10.152;2022-12-24T18:07:46;21.33;;;6.10;;
26512;SDS011;14186;53.822;10.152;2022-12-24T18:12:47;19.60;;;6.68;;
26512;SDS011;14186;53.822;10.152;2022-12-24T18:17:49;22.88;;;7.20;;
26512;SDS011;14186;53.822;10.152;2022-12-24T18:22:49;25.48;;;7.35;;
26512;SDS011;14186;53.822;10.152;2022-12-24T18:27:50;22.83;;;7.00;;
26512;SDS011;14186;53.822;10.152;2022-12-24T18:32:51;25.88;;;7.32;;
26512;SDS011;14186;53.822;10.152;2022-12-24T18:37:51;17.52;;;7.03;;
26512;SDS011;14186;53.822;10.152;2022-12-24T18:42:52;27.48;;;7.43;;
26512;SDS011;14186;53.822;10.152;2022-12-24T18:47:53;25.05;;;7.65;;
26512;SDS011;14186;53.822;10.152;2022-12-24T18:52:53;29.52;;;6.57;;
26512;SDS011;14186;53.822;10.152;2022-12-24T18:57:54;27.08;;;7.53;;
26512;SDS011;14186;53.822;10.152;2022-12-24T19:02:54;19.77;;;5.38;;
26512;SDS011;14186;53.822;10.152;2022-12-24T19:07:55;18.98;;;4.72;;
26512;SDS011;14186;53.822;10.152;2022-12-24T19:12:56;20.10;;;3.95;;
26512;SDS011;14186;53.822;10.152;2022-12-24T19:17:57;18.38;;;4.97;;
26512;SDS011;14186;53.822;10.152;2022-12-24T19:22:57;18.52;;;4.22;;
26512;SDS011;14186;53.822;10.152;2022-12-24T19:27:58;23.05;;;5.70;;
26512;SDS011;14186;53.822;10.152;2022-12-24T19:32:58;15.40;;;4.00;;
26512;SDS011;14186;53.822;10.152;2022-12-24T19:37:59;15.57;;;4.47;;
26512;SDS011;14186;53.822;10.152;2022-12-24T19:43:00;17.23;;;4.07;;
26512;SDS011;14186;53.822;10.152;2022-12-24T19:48:00;15.63;;;4.00;;
26512;SDS011;14186;53.822;10.152;2022-12-24T19:53:01;14.82;;;3.30;;
26512;SDS011;14186;53.822;10.152;2022-12-24T19:58:02;16.88;;;3.40;;
26512;SDS011;14186;53.822;10.152;2022-12-24T20:03:02;17.83;;;3.83;;
26512;SDS011;14186;53.822;10.152;2022-12-24T20:08:03;17.70;;;3.40;;
26512;SDS011;14186;53.822;10.152;2022-12-24T20:13:04;14.43;;;3.53;;
26512;SDS011;14186;53.822;10.152;2022-12-24T20:18:05;12.48;;;3.35;;
26512;SDS011;14186;53.822;10.152;2022-12-24T20:23:05;19.65;;;5.03;;
26512;SDS011;14186;53.822;10.152;2022-12-24T20:28:07;21.05;;;3.95;;
26512;SDS011;14186;53.822;10.152;2022-12-24T20:33:07;25.45;;;4.15;;
26512;SDS011;14186;53.822;10.152;2022-12-24T20:38:07;20.10;;;3.92;;
26512;SDS011;14186;53.822;10.152;2022-12-24T20:43:09;14.05;;;3.70;;
26512;SDS011;14186;53.822;10.152;2022-12-24T20:48:10;15.23;;;4.55;;
26512;SDS011;14186;53.822;10.152;2022-12-24T20:53:10;22.75;;;5.10;;
26512;SDS011;14186;53.822;10.152;2022-12-24T20:58:12;14.30;;;4.10;;
26512;SDS011;14186;53.822;10.152;2022-12-24T21:03:12;20.52;;;3.95;;
26512;SDS011;14186;53.822;10.152;2022-12-24T21:08:13;20.73;;;4.22;;
26512;SDS011;14186;53.822;10.152;2022-12-24T21:13:15;19.90;;;4.32;;
26512;SDS011;14186;53.822;10.152;2022-12-24T21:18:15;22.85;;;5.60;;
26512;SDS011;14186;53.822;10.152;2022-12-24T21:23:15;21.85;;;4.90;;
26512;SDS011;14186;53.822;10.152;2022-12-24T21:28:17;23.13;;;5.78;;
26512;SDS011;14186;53.822;10.152;2022-12-24T21:33:17;21.70;;;6.18;;
26512;SDS011;14186;53.822;10.152;2022-12-24T21:38:17;20.00;;;5.18;;
26512;SDS011;14186;53.822;10.152;2022-12-24T21:43:19;28.20;;;6.25;;
26512;SDS011;14186;53.822;10.152;2022-12-24T21:48:19;27.45;;;5.93;;
26512;SDS011;14186;53.822;10.152;2022-12-24T21:53:19;23.67;;;5.32;;
26512;SDS011;14186;53.822;10.152;2022-12-24T21:58:21;27.75;;;6.50;;
26512;SDS011;14186;53.822;10.152;2022-12-24T22:03:21;20.35;;;5.95;;
26512;SDS011;14186;53.822;10.152;2022-12-24T22:08:21;18.60;;;4.78;;
26512;SDS011;14186;53.822;10.152;2022-12-24T22:13:23;23.63;;;5.57;;
26512;SDS011;14186;53.822;10.152;2022-12-24T22:18:24;23.15;;;6.35;;
26512;SDS011;14186;53.822;10.152;2022-12-24T22:23:24;26.30;;;5.10;;
26512;SDS011;14186;53.822;10.152;2022-12-24T22:28:26;23.20;;;6.32;;
26512;SDS011;14186;53.822;10.152;2022-12-24T22:33:26;23.77;;;5.82;;
26512;SDS011;14186;53.822;10.152;2022-12-24T22:38:27;25.27;;;5.55;;
26512;SDS011;14186;53.822;10.152;2022-12-24T22:43:28;26.45;;;6.47;;
26512;SDS011;14186;53.822;10.152;2022-12-24T22:48:28;30.85;;;6.05;;
26512;SDS011;14186;53.822;10.152;2022-12-24T22:53:29;30.58;;;6.15;;
26512;SDS011;14186;53.822;10.152;2022-12-24T22:58:30;23.17;;;5.75;;
26512;SDS011;14186;53.822;10.152;2022-12-24T23:03:30;21.77;;;5.22;;
26512;SDS011;14186;53.822;10.152;2022-12-24T23:08:31;18.58;;;6.75;;
26512;SDS011;14186;53.822;10.152;2022-12-24T23:13:32;20.63;;;5.50;;
26512;SDS011;14186;53.822;10.152;2022-12-24T23:18:33;22.70;;;6.00;;
26512;SDS011;14186;53.822;10.152;2022-12-24T23:23:33;22.02;;;6.05;;
26512;SDS011;14186;53.822;10.152;2022-12-24T23:28:35;25.10;;;6.38;;
26512;SDS011;14186;53.822;10.152;2022-12-24T23:33:35;30.48;;;6.30;;
26512;SDS011;14186;53.822;10.152;2022-12-24T23:38:35;25.27;;;6.80;;
26512;SDS011;14186;53.822;10.152;2022-12-24T23:43:37;26.30;;;7.07;;
26512;SDS011;14186;53.822;10.152;2022-12-24T23:48:37;33.10;;;7.22;;
26512;SDS011;14186;53.822;10.152;2022-12-24T23:53:37;33.28;;;8.55;;
26512;SDS011;14186;53.822;10.152;2022-12-24T23:58:39;25.02;;;7.25;;
